sensor_id;sensor_type;location;lat;lon;timestamp;P1;durP1;ratioP1;P2;durP2;ratioP2
69789;SDS011;57064;52.046;4.800;2023-06-14T00:01:51;6.88;;;4.70;;
69789;SDS011;57064;52.046;4.800;2023-06-14T00:04:17;8.45;;;4.07;;
69789;SDS011;57064;52.046;4.800;2023-06-14T00:06:45;7.53;;;4.57;;
69789;SDS011;57064;52.046;4.800;2023-06-14T00:09:11;6.80;;;4.80;;
69789;SDS011;57064;52.046;4.800;2023-06-14T00:11:38;10.55;;;4.95;;
69789;SDS011;57064;52.046;4.800;2023-06-14T00:14:07;7.70;;;4.32;;
69789;SDS011;57064;52.046;4.800;2023-06-14T00:16:34;7.45;;;4.35;;
69789;SDS011;57064;52.046;4.800;2023-06-14T00:19:01;6.72;;;3.95;;
69789;SDS011;57064;52.046;4.800;2023-06-14T00:21:30;8.65;;;4.43;;
69789;SDS011;57064;52.046;4.800;2023-06-14T00:24:00;6.38;;;4.15;;
69789;SDS011;57064;52.046;4.800;2023-06-14T00:26:26;9.70;;;4.10;;
69789;SDS011;57064;52.046;4.800;2023-06-14T00:28:53;6.85;;;4.38;;
69789;SDS011;57064;52.046;4.800;2023-06-14T00:31:21;6.63;;;3.35;;
69789;SDS011;57064;52.046;4.800;2023-06-14T00:33:50;6.93;;;3.65;;
69789;SDS011;57064;52.046;4.800;2023-06-14T00:36:16;6.38;;;3.47;;
69789;SDS011;57064;52.046;4.800;2023-06-14T00:38:42;5.43;;;3.40;;
69789;SDS011;57064;52.046;4.800;2023-06-14T00:41:08;6.65;;;3.38;;
69789;SDS011;57064;52.046;4.800;2023-06-14T00:43:34;5.00;;;3.08;;
69789;SDS011;57064;52.046;4.800;2023-06-14T00:46:00;9.13;;;3.50;;
69789;SDS011;57064;52.046;4.800;2023-06-14T00:48:27;5.38;;;3.38;;
69789;SDS011;57064;52.046;4.800;2023-06-14T00:50:55;10.27;;;3.97;;
69789;SDS011;57064;52.046;4.800;2023-06-14T00:53:22;5.95;;;3.63;;
69789;SDS011;57064;52.046;4.800;2023-06-14T00:55:50;10.40;;;3.50;;
69789;SDS011;57064;52.046;4.800;2023-06-14T00:58:16;6.75;;;3.58;;
69789;SDS011;57064;52.046;4.800;2023-06-14T01:00:42;6.55;;;3.10;;
69789;SDS011;57064;52.046;4.800;2023-06-14T01:03:09;8.20;;;3.50;;
69789;SDS011;57064;52.046;4.800;2023-06-14T01:05:37;9.50;;;4.13;;
69789;SDS011;57064;52.046;4.800;2023-06-14T01:08:22;5.68;;;3.03;;
69789;SDS011;57064;52.046;4.800;2023-06-14T01:10:56;5.45;;;2.90;;
69789;SDS011;57064;52.046;4.800;2023-06-14T01:13:40;6.50;;;3.05;;
69789;SDS011;57064;52.046;4.800;2023-06-14T01:16:10;8.38;;;3.10;;
69789;SDS011;57064;52.046;4.800;2023-06-14T01:18:36;5.72;;;3.10;;
69789;SDS011;57064;52.046;4.800;2023-06-14T01:21:03;5.55;;;3.03;;
69789;SDS011;57064;52.046;4.800;2023-06-14T01:23:31;7.10;;;3.28;;
69789;SDS011;57064;52.046;4.800;2023-06-14T01:25:58;6.30;;;3.05;;
69789;SDS011;57064;52.046;4.800;2023-06-14T01:28:25;8.32;;;3.38;;
69789;SDS011;57064;52.046;4.800;2023-06-14T01:30:57;9.10;;;3.25;;
69789;SDS011;57064;52.046;4.800;2023-06-14T01:35:55;7.68;;;2.88;;
69789;SDS011;57064;52.046;4.800;2023-06-14T01:38:25;4.82;;;2.75;;
69789;SDS011;57064;52.046;4.800;2023-06-14T01:40:52;5.18;;;2.95;;
69789;SDS011;57064;52.046;4.800;2023-06-14T01:43:20;7.70;;;2.90;;
69789;SDS011;57064;52.046;4.800;2023-06-14T01:45:47;7.65;;;2.40;;
69789;SDS011;57064;52.046;4.800;2023-06-14T01:48:15;6.22;;;3.33;;
69789;SDS011;57064;52.046;4.800;2023-06-14T01:50:41;14.27;;;3.47;;
69789;SDS011;57064;52.046;4.800;2023-06-14T01:53:08;5.72;;;2.88;;
69789;SDS011;57064;52.046;4.800;2023-06-14T01:55:35;4.05;;;2.58;;
69789;SDS011;57064;52.046;4.800;2023-06-14T01:58:08;6.55;;;2.70;;
69789;SDS011;57064;52.046;4.800;2023-06-14T02:00:35;6.72;;;2.80;;
69789;SDS011;57064;52.046;4.800;2023-06-14T02:03:01;5.95;;;2.75;;
69789;SDS011;57064;52.046;4.800;2023-06-14T02:05:29;5.32;;;3.00;;
69789;SDS011;57064;52.046;4.800;2023-06-14T02:07:55;7.20;;;2.80;;
69789;SDS011;57064;52.046;4.800;2023-06-14T02:10:21;5.05;;;2.90;;
69789;SDS011;57064;52.046;4.800;2023-06-14T02:12:48;6.95;;;3.30;;
69789;SDS011;57064;52.046;4.800;2023-06-14T02:15:15;6.35;;;3.05;;
69789;SDS011;57064;52.046;4.800;2023-06-14T02:17:45;9.70;;;2.67;;
69789;SDS011;57064;52.046;4.800;2023-06-14T02:20:14;6.40;;;2.90;;
69789;SDS011;57064;52.046;4.800;2023-06-14T02:22:41;7.15;;;2.83;;
69789;SDS011;57064;52.046;4.800;2023-06-14T02:25:07;4.97;;;2.83;;
69789;SDS011;57064;52.046;4.800;2023-06-14T02:27:34;5.20;;;2.58;;
69789;SDS011;57064;52.046;4.800;2023-06-14T02:30:00;5.15;;;2.90;;
69789;SDS011;57064;52.046;4.800;2023-06-14T02:32:27;7.15;;;3.30;;
69789;SDS011;57064;52.046;4.800;2023-06-14T02:34:53;5.95;;;3.20;;
69789;SDS011;57064;52.046;4.800;2023-06-14T02:37:19;4.22;;;2.60;;
69789;SDS011;57064;52.046;4.800;2023-06-14T02:39:45;6.50;;;3.20;;
69789;SDS011;57064;52.046;4.800;2023-06-14T02:42:12;11.63;;;3.17;;
69789;SDS011;57064;52.046;4.800;2023-06-14T02:44:38;7.32;;;2.97;;
69789;SDS011;57064;52.046;4.800;2023-06-14T02:47:04;6.75;;;3.30;;
69789;SDS011;57064;52.046;4.800;2023-06-14T02:49:31;8.45;;;3.38;;
69789;SDS011;57064;52.046;4.800;2023-06-14T02:51:57;5.70;;;3.63;;
69789;SDS011;57064;52.046;4.800;2023-06-14T02:54:23;8.73;;;4.32;;
69789;SDS011;57064;52.046;4.800;2023-06-14T02:56:49;6.85;;;3.58;;
69789;SDS011;57064;52.046;4.800;2023-06-14T02:59:15;6.10;;;3.30;;
69789;SDS011;57064;52.046;4.800;2023-06-14T03:01:42;7.70;;;4.10;;
69789;SDS011;57064;52.046;4.800;2023-06-14T03:04:08;8.65;;;3.80;;
69789;SDS011;57064;52.046;4.800;2023-06-14T03:06:34;8.68;;;3.58;;
69789;SDS011;57064;52.046;4.800;2023-06-14T03:09:01;8.82;;;4.13;;
69789;SDS011;57064;52.046;4.800;2023-06-14T03:11:31;6.13;;;3.58;;
69789;SDS011;57064;52.046;4.800;2023-06-14T03:13:57;7.45;;;4.07;;
69789;SDS011;57064;52.046;4.800;2023-06-14T03:16:24;7.85;;;4.60;;
69789;SDS011;57064;52.046;4.800;2023-06-14T03:18:51;7.53;;;3.92;;
69789;SDS011;57064;52.046;4.800;2023-06-14T03:21:17;7.15;;;4.35;;
69789;SDS011;57064;52.046;4.800;2023-06-14T03:23:45;7.82;;;4.07;;
69789;SDS011;57064;52.046;4.800;2023-06-14T03:26:12;9.95;;;4.05;;
69789;SDS011;57064;52.046;4.800;2023-06-14T03:28:39;8.90;;;4.20;;
69789;SDS011;57064;52.046;4.800;2023-06-14T03:31:06;8.40;;;4.18;;
69789;SDS011;57064;52.046;4.800;2023-06-14T03:33:33;12.55;;;4.40;;
69789;SDS011;57064;52.046;4.800;2023-06-14T03:36:00;7.03;;;4.20;;
69789;SDS011;57064;52.046;4.800;2023-06-14T03:38:27;8.30;;;3.78;;
69789;SDS011;57064;52.046;4.800;2023-06-14T03:40:54;11.68;;;4.72;;
69789;SDS011;57064;52.046;4.800;2023-06-14T03:43:20;7.57;;;4.47;;
69789;SDS011;57064;52.046;4.800;2023-06-14T03:45:46;11.32;;;3.95;;
69789;SDS011;57064;52.046;4.800;2023-06-14T03:48:12;13.23;;;3.97;;
69789;SDS011;57064;52.046;4.800;2023-06-14T03:50:38;7.82;;;3.80;;
69789;SDS011;57064;52.046;4.800;2023-06-14T03:53:05;6.60;;;3.88;;
69789;SDS011;57064;52.046;4.800;2023-06-14T03:55:31;6.75;;;3.70;;
69789;SDS011;57064;52.046;4.800;2023-06-14T03:57:58;8.45;;;5.00;;
69789;SDS011;57064;52.046;4.800;2023-06-14T04:00:24;7.32;;;3.67;;
69789;SDS011;57064;52.046;4.800;2023-06-14T04:02:50;5.65;;;3.00;;
69789;SDS011;57064;52.046;4.800;2023-06-14T04:05:17;6.25;;;3.33;;
69789;SDS011;57064;52.046;4.800;2023-06-14T04:07:44;6.13;;;3.53;;
69789;SDS011;57064;52.046;4.800;2023-06-14T04:10:13;9.13;;;3.60;;
69789;SDS011;57064;52.046;4.800;2023-06-14T04:12:40;6.07;;;3.22;;
69789;SDS011;57064;52.046;4.800;2023-06-14T04:15:06;7.68;;;4.00;;
69789;SDS011;57064;52.046;4.800;2023-06-14T04:17:36;4.03;;;3.00;;
69789;SDS011;57064;52.046;4.800;2023-06-14T04:20:03;6.40;;;3.08;;
69789;SDS011;57064;52.046;4.800;2023-06-14T04:22:31;8.77;;;3.05;;
69789;SDS011;57064;52.046;4.800;2023-06-14T04:24:58;8.10;;;3.15;;
69789;SDS011;57064;52.046;4.800;2023-06-14T04:27:25;5.90;;;2.90;;
69789;SDS011;57064;52.046;4.800;2023-06-14T04:29:53;7.50;;;3.13;;
69789;SDS011;57064;52.046;4.800;2023-06-14T04:32:27;9.98;;;3.35;;
69789;SDS011;57064;52.046;4.800;2023-06-14T04:35:05;4.78;;;2.33;;
69789;SDS011;57064;52.046;4.800;2023-06-14T04:37:32;5.57;;;2.70;;
69789;SDS011;57064;52.046;4.800;2023-06-14T04:39:59;5.20;;;2.75;;
69789;SDS011;57064;52.046;4.800;2023-06-14T04:42:25;6.65;;;2.63;;
69789;SDS011;57064;52.046;4.800;2023-06-14T04:44:55;6.07;;;2.60;;
69789;SDS011;57064;52.046;4.800;2023-06-14T04:47:22;5.88;;;3.20;;
69789;SDS011;57064;52.046;4.800;2023-06-14T04:49:54;5.20;;;2.78;;
69789;SDS011;57064;52.046;4.800;2023-06-14T04:52:22;6.88;;;2.97;;
69789;SDS011;57064;52.046;4.800;2023-06-14T04:54:48;6.22;;;3.30;;
69789;SDS011;57064;52.046;4.800;2023-06-14T04:57:14;9.77;;;2.90;;
69789;SDS011;57064;52.046;4.800;2023-06-14T04:59:42;5.25;;;2.28;;
69789;SDS011;57064;52.046;4.800;2023-06-14T05:02:09;3.53;;;2.50;;
69789;SDS011;57064;52.046;4.800;2023-06-14T05:04:36;6.45;;;2.72;;
69789;SDS011;57064;52.046;4.800;2023-06-14T05:07:05;6.07;;;3.05;;
69789;SDS011;57064;52.046;4.800;2023-06-14T05:09:35;3.45;;;2.30;;
69789;SDS011;57064;52.046;4.800;2023-06-14T05:12:02;5.43;;;2.10;;
69789;SDS011;57064;52.046;4.800;2023-06-14T05:14:28;7.70;;;2.60;;
69789;SDS011;57064;52.046;4.800;2023-06-14T05:16:55;4.90;;;2.67;;
69789;SDS011;57064;52.046;4.800;2023-06-14T05:19:21;6.03;;;3.10;;
69789;SDS011;57064;52.046;4.800;2023-06-14T05:21:47;6.75;;;2.70;;
69789;SDS011;57064;52.046;4.800;2023-06-14T05:24:13;5.18;;;2.80;;
69789;SDS011;57064;52.046;4.800;2023-06-14T05:26:40;3.80;;;2.85;;
69789;SDS011;57064;52.046;4.800;2023-06-14T05:29:06;8.30;;;2.90;;
69789;SDS011;57064;52.046;4.800;2023-06-14T05:31:32;5.82;;;2.85;;
69789;SDS011;57064;52.046;4.800;2023-06-14T05:33:58;5.65;;;2.88;;
69789;SDS011;57064;52.046;4.800;2023-06-14T05:36:24;5.68;;;2.47;;
69789;SDS011;57064;52.046;4.800;2023-06-14T05:38:53;5.07;;;2.88;;
69789;SDS011;57064;52.046;4.800;2023-06-14T05:43:51;7.70;;;2.53;;
69789;SDS011;57064;52.046;4.800;2023-06-14T05:46:18;9.32;;;2.92;;
69789;SDS011;57064;52.046;4.800;2023-06-14T05:48:47;9.95;;;3.33;;
69789;SDS011;57064;52.046;4.800;2023-06-14T05:51:14;7.80;;;2.72;;
69789;SDS011;57064;52.046;4.800;2023-06-14T05:53:43;6.03;;;2.42;;
69789;SDS011;57064;52.046;4.800;2023-06-14T05:56:11;4.80;;;2.30;;
69789;SDS011;57064;52.046;4.800;2023-06-14T05:58:37;7.70;;;2.95;;
69789;SDS011;57064;52.046;4.800;2023-06-14T06:01:03;6.18;;;2.90;;
69789;SDS011;57064;52.046;4.800;2023-06-14T06:03:30;8.50;;;3.10;;
69789;SDS011;57064;52.046;4.800;2023-06-14T06:05:56;7.05;;;2.88;;
69789;SDS011;57064;52.046;4.800;2023-06-14T06:08:22;8.55;;;3.13;;
69789;SDS011;57064;52.046;4.800;2023-06-14T06:10:48;5.40;;;2.67;;
69789;SDS011;57064;52.046;4.800;2023-06-14T06:13:14;8.73;;;3.30;;
69789;SDS011;57064;52.046;4.800;2023-06-14T06:15:41;5.13;;;2.78;;
69789;SDS011;57064;52.046;4.800;2023-06-14T06:18:07;6.20;;;3.15;;
69789;SDS011;57064;52.046;4.800;2023-06-14T06:20:33;7.63;;;3.17;;
69789;SDS011;57064;52.046;4.800;2023-06-14T06:23:00;7.05;;;3.20;;
69789;SDS011;57064;52.046;4.800;2023-06-14T06:25:27;7.68;;;3.08;;
69789;SDS011;57064;52.046;4.800;2023-06-14T06:27:53;7.30;;;2.85;;
69789;SDS011;57064;52.046;4.800;2023-06-14T06:30:21;8.20;;;3.22;;
69789;SDS011;57064;52.046;4.800;2023-06-14T06:32:48;8.93;;;2.85;;
69789;SDS011;57064;52.046;4.800;2023-06-14T06:35:14;4.28;;;2.85;;
69789;SDS011;57064;52.046;4.800;2023-06-14T06:37:43;5.82;;;2.78;;
69789;SDS011;57064;52.046;4.800;2023-06-14T06:40:09;5.93;;;3.28;;
69789;SDS011;57064;52.046;4.800;2023-06-14T06:42:36;8.00;;;2.78;;
69789;SDS011;57064;52.046;4.800;2023-06-14T06:45:02;7.18;;;2.65;;
69789;SDS011;57064;52.046;4.800;2023-06-14T06:47:29;6.13;;;2.80;;
69789;SDS011;57064;52.046;4.800;2023-06-14T06:49:55;6.68;;;2.40;;
69789;SDS011;57064;52.046;4.800;2023-06-14T06:52:21;8.55;;;2.40;;
69789;SDS011;57064;52.046;4.800;2023-06-14T06:54:47;7.57;;;2.45;;
69789;SDS011;57064;52.046;4.800;2023-06-14T06:57:14;3.70;;;2.45;;
69789;SDS011;57064;52.046;4.800;2023-06-14T06:59:40;6.35;;;2.83;;
69789;SDS011;57064;52.046;4.800;2023-06-14T07:02:06;10.77;;;3.03;;
69789;SDS011;57064;52.046;4.800;2023-06-14T07:04:32;6.60;;;2.85;;
69789;SDS011;57064;52.046;4.800;2023-06-14T07:06:58;4.95;;;2.53;;
69789;SDS011;57064;52.046;4.800;2023-06-14T07:09:24;4.35;;;2.65;;
69789;SDS011;57064;52.046;4.800;2023-06-14T07:11:50;7.32;;;2.90;;
69789;SDS011;57064;52.046;4.800;2023-06-14T07:14:17;6.18;;;2.72;;
69789;SDS011;57064;52.046;4.800;2023-06-14T07:16:43;4.97;;;2.60;;
69789;SDS011;57064;52.046;4.800;2023-06-14T07:19:09;7.15;;;3.17;;
69789;SDS011;57064;52.046;4.800;2023-06-14T07:21:36;6.28;;;3.30;;
69789;SDS011;57064;52.046;4.800;2023-06-14T07:24:07;9.88;;;2.53;;
69789;SDS011;57064;52.046;4.800;2023-06-14T07:26:33;8.75;;;2.78;;
69789;SDS011;57064;52.046;4.800;2023-06-14T07:29:00;8.63;;;3.03;;
69789;SDS011;57064;52.046;4.800;2023-06-14T07:31:27;4.28;;;2.70;;
69789;SDS011;57064;52.046;4.800;2023-06-14T07:33:53;6.43;;;3.03;;
69789;SDS011;57064;52.046;4.800;2023-06-14T07:36:19;5.65;;;3.00;;
69789;SDS011;57064;52.046;4.800;2023-06-14T07:38:45;4.65;;;3.30;;
69789;SDS011;57064;52.046;4.800;2023-06-14T07:41:12;5.95;;;3.40;;
69789;SDS011;57064;52.046;4.800;2023-06-14T07:43:38;7.72;;;3.03;;
69789;SDS011;57064;52.046;4.800;2023-06-14T07:46:04;7.10;;;3.15;;
69789;SDS011;57064;52.046;4.800;2023-06-14T07:48:30;5.43;;;2.75;;
69789;SDS011;57064;52.046;4.800;2023-06-14T07:50:57;9.90;;;3.13;;
69789;SDS011;57064;52.046;4.800;2023-06-14T07:53:23;7.97;;;2.92;;
69789;SDS011;57064;52.046;4.800;2023-06-14T07:55:49;4.38;;;2.90;;
69789;SDS011;57064;52.046;4.800;2023-06-14T07:58:15;7.45;;;3.47;;
69789;SDS011;57064;52.046;4.800;2023-06-14T08:00:42;6.47;;;2.97;;
69789;SDS011;57064;52.046;4.800;2023-06-14T08:03:08;6.25;;;2.88;;
69789;SDS011;57064;52.046;4.800;2023-06-14T08:05:35;6.63;;;2.80;;
69789;SDS011;57064;52.046;4.800;2023-06-14T08:08:01;13.07;;;2.75;;
69789;SDS011;57064;52.046;4.800;2023-06-14T08:10:27;3.42;;;2.70;;
69789;SDS011;57064;52.046;4.800;2023-06-14T08:12:54;12.60;;;3.22;;
69789;SDS011;57064;52.046;4.800;2023-06-14T08:15:20;4.72;;;3.30;;
69789;SDS011;57064;52.046;4.800;2023-06-14T08:17:46;5.93;;;2.60;;
69789;SDS011;57064;52.046;4.800;2023-06-14T08:20:12;6.07;;;2.80;;
69789;SDS011;57064;52.046;4.800;2023-06-14T08:22:41;7.72;;;3.03;;
69789;SDS011;57064;52.046;4.800;2023-06-14T08:25:08;5.38;;;2.70;;
69789;SDS011;57064;52.046;4.800;2023-06-14T08:27:35;4.28;;;2.70;;
69789;SDS011;57064;52.046;4.800;2023-06-14T08:30:01;5.10;;;2.80;;
69789;SDS011;57064;52.046;4.800;2023-06-14T08:32:28;7.35;;;2.72;;
69789;SDS011;57064;52.046;4.800;2023-06-14T08:34:54;5.88;;;2.78;;
69789;SDS011;57064;52.046;4.800;2023-06-14T08:37:20;3.78;;;2.47;;
69789;SDS011;57064;52.046;4.800;2023-06-14T08:39:46;5.68;;;2.40;;
69789;SDS011;57064;52.046;4.800;2023-06-14T08:42:13;6.00;;;2.90;;
69789;SDS011;57064;52.046;4.800;2023-06-14T08:44:40;5.40;;;2.70;;
69789;SDS011;57064;52.046;4.800;2023-06-14T08:47:07;5.95;;;2.38;;
69789;SDS011;57064;52.046;4.800;2023-06-14T08:49:35;5.38;;;3.00;;
69789;SDS011;57064;52.046;4.800;2023-06-14T08:52:02;4.85;;;2.70;;
69789;SDS011;57064;52.046;4.800;2023-06-14T08:54:30;5.03;;;2.50;;
69789;SDS011;57064;52.046;4.800;2023-06-14T08:56:59;4.95;;;2.97;;
69789;SDS011;57064;52.046;4.800;2023-06-14T08:59:26;7.47;;;2.50;;
69789;SDS011;57064;52.046;4.800;2023-06-14T09:01:53;5.38;;;2.45;;
69789;SDS011;57064;52.046;4.800;2023-06-14T09:04:23;4.32;;;2.72;;
69789;SDS011;57064;52.046;4.800;2023-06-14T09:06:50;5.85;;;2.67;;
69789;SDS011;57064;52.046;4.800;2023-06-14T09:09:19;4.20;;;2.40;;
69789;SDS011;57064;52.046;4.800;2023-06-14T09:11:46;4.55;;;2.38;;
69789;SDS011;57064;52.046;4.800;2023-06-14T09:14:12;6.13;;;2.50;;
69789;SDS011;57064;52.046;4.800;2023-06-14T09:16:39;4.13;;;2.22;;
69789;SDS011;57064;52.046;4.800;2023-06-14T09:19:05;5.60;;;2.30;;
69789;SDS011;57064;52.046;4.800;2023-06-14T09:21:33;11.27;;;2.92;;
69789;SDS011;57064;52.046;4.800;2023-06-14T09:24:03;6.50;;;2.95;;
69789;SDS011;57064;52.046;4.800;2023-06-14T09:26:29;4.18;;;2.03;;
69789;SDS011;57064;52.046;4.800;2023-06-14T09:28:56;4.05;;;2.08;;
69789;SDS011;57064;52.046;4.800;2023-06-14T09:31:22;4.57;;;2.35;;
69789;SDS011;57064;52.046;4.800;2023-06-14T09:33:49;4.75;;;2.33;;
69789;SDS011;57064;52.046;4.800;2023-06-14T09:36:20;3.65;;;2.17;;
69789;SDS011;57064;52.046;4.800;2023-06-14T09:41:34;7.32;;;2.35;;
69789;SDS011;57064;52.046;4.800;2023-06-14T09:44:08;4.50;;;2.03;;
69789;SDS011;57064;52.046;4.800;2023-06-14T09:46:35;3.95;;;2.17;;
69789;SDS011;57064;52.046;4.800;2023-06-14T09:49:02;6.35;;;2.10;;
69789;SDS011;57064;52.046;4.800;2023-06-14T09:51:30;3.05;;;1.48;;
69789;SDS011;57064;52.046;4.800;2023-06-14T09:54:00;2.90;;;1.83;;
69789;SDS011;57064;52.046;4.800;2023-06-14T09:56:30;3.88;;;1.63;;
69789;SDS011;57064;52.046;4.800;2023-06-14T09:59:06;3.05;;;1.48;;
69789;SDS011;57064;52.046;4.800;2023-06-14T10:01:34;3.55;;;1.90;;
69789;SDS011;57064;52.046;4.800;2023-06-14T10:04:06;4.38;;;1.63;;
69789;SDS011;57064;52.046;4.800;2023-06-14T10:06:36;2.65;;;1.58;;
69789;SDS011;57064;52.046;4.800;2023-06-14T10:09:04;4.38;;;1.60;;
69789;SDS011;57064;52.046;4.800;2023-06-14T10:11:34;3.08;;;1.80;;
69789;SDS011;57064;52.046;4.800;2023-06-14T10:14:01;2.60;;;2.00;;
69789;SDS011;57064;52.046;4.800;2023-06-14T10:16:34;3.33;;;1.92;;
69789;SDS011;57064;52.046;4.800;2023-06-14T10:19:29;4.10;;;1.70;;
69789;SDS011;57064;52.046;4.800;2023-06-14T10:24:47;4.10;;;1.50;;
69789;SDS011;57064;52.046;4.800;2023-06-14T10:27:15;2.58;;;1.58;;
69789;SDS011;57064;52.046;4.800;2023-06-14T10:32:26;6.63;;;1.45;;
69789;SDS011;57064;52.046;4.800;2023-06-14T10:34:54;2.78;;;1.60;;
69789;SDS011;57064;52.046;4.800;2023-06-14T10:37:21;2.85;;;1.38;;
69789;SDS011;57064;52.046;4.800;2023-06-14T10:39:48;4.30;;;1.60;;
69789;SDS011;57064;52.046;4.800;2023-06-14T10:42:15;6.03;;;1.42;;
69789;SDS011;57064;52.046;4.800;2023-06-14T10:44:50;3.42;;;1.48;;
69789;SDS011;57064;52.046;4.800;2023-06-14T10:47:25;4.40;;;1.70;;
69789;SDS011;57064;52.046;4.800;2023-06-14T10:52:34;2.53;;;1.13;;
69789;SDS011;57064;52.046;4.800;2023-06-14T11:00:24;2.45;;;1.60;;
69789;SDS011;57064;52.046;4.800;2023-06-14T11:05:55;2.80;;;1.38;;
69789;SDS011;57064;52.046;4.800;2023-06-14T11:10:51;4.20;;;1.20;;
69789;SDS011;57064;52.046;4.800;2023-06-14T11:13:23;3.13;;;1.58;;
69789;SDS011;57064;52.046;4.800;2023-06-14T11:15:51;2.20;;;1.40;;
69789;SDS011;57064;52.046;4.800;2023-06-14T11:18:22;3.38;;;1.35;;
69789;SDS011;57064;52.046;4.800;2023-06-14T11:20:54;2.83;;;1.50;;
69789;SDS011;57064;52.046;4.800;2023-06-14T11:23:21;4.00;;;1.60;;
69789;SDS011;57064;52.046;4.800;2023-06-14T11:25:53;2.03;;;1.30;;
69789;SDS011;57064;52.046;4.800;2023-06-14T11:28:19;2.10;;;1.33;;
69789;SDS011;57064;52.046;4.800;2023-06-14T11:30:47;1.92;;;1.10;;
69789;SDS011;57064;52.046;4.800;2023-06-14T11:33:17;2.35;;;1.20;;
69789;SDS011;57064;52.046;4.800;2023-06-14T11:35:44;2.25;;;1.33;;
69789;SDS011;57064;52.046;4.800;2023-06-14T11:38:10;2.83;;;1.45;;
69789;SDS011;57064;52.046;4.800;2023-06-14T11:40:37;2.25;;;1.35;;
69789;SDS011;57064;52.046;4.800;2023-06-14T11:43:04;4.50;;;1.40;;
69789;SDS011;57064;52.046;4.800;2023-06-14T11:45:30;2.53;;;1.13;;
69789;SDS011;57064;52.046;4.800;2023-06-14T11:47:57;2.40;;;1.35;;
69789;SDS011;57064;52.046;4.800;2023-06-14T11:50:24;2.05;;;1.10;;
69789;SDS011;57064;52.046;4.800;2023-06-14T11:55:25;3.78;;;1.50;;
69789;SDS011;57064;52.046;4.800;2023-06-14T11:57:53;2.50;;;1.40;;
69789;SDS011;57064;52.046;4.800;2023-06-14T12:00:22;3.20;;;1.20;;
69789;SDS011;57064;52.046;4.800;2023-06-14T12:02:55;3.25;;;1.10;;
69789;SDS011;57064;52.046;4.800;2023-06-14T12:05:22;2.45;;;1.50;;
69789;SDS011;57064;52.046;4.800;2023-06-14T12:07:49;2.15;;;1.30;;
69789;SDS011;57064;52.046;4.800;2023-06-14T12:10:18;2.25;;;1.33;;
69789;SDS011;57064;52.046;4.800;2023-06-14T12:12:44;2.92;;;1.48;;
69789;SDS011;57064;52.046;4.800;2023-06-14T12:15:11;3.35;;;1.30;;
69789;SDS011;57064;52.046;4.800;2023-06-14T12:17:37;2.83;;;1.63;;
69789;SDS011;57064;52.046;4.800;2023-06-14T12:20:08;2.65;;;1.52;;
69789;SDS011;57064;52.046;4.800;2023-06-14T12:22:36;2.65;;;1.40;;
69789;SDS011;57064;52.046;4.800;2023-06-14T12:25:03;2.47;;;1.50;;
69789;SDS011;57064;52.046;4.800;2023-06-14T12:27:30;4.30;;;1.45;;
69789;SDS011;57064;52.046;4.800;2023-06-14T12:30:02;4.60;;;1.30;;
69789;SDS011;57064;52.046;4.800;2023-06-14T12:32:30;2.97;;;1.52;;
69789;SDS011;57064;52.046;4.800;2023-06-14T12:34:56;2.78;;;1.10;;
69789;SDS011;57064;52.046;4.800;2023-06-14T12:37:22;2.30;;;1.08;;
69789;SDS011;57064;52.046;4.800;2023-06-14T12:39:48;3.63;;;1.33;;
69789;SDS011;57064;52.046;4.800;2023-06-14T12:42:15;1.90;;;1.02;;
69789;SDS011;57064;52.046;4.800;2023-06-14T12:44:42;5.30;;;1.75;;
69789;SDS011;57064;52.046;4.800;2023-06-14T12:47:08;2.35;;;1.25;;
69789;SDS011;57064;52.046;4.800;2023-06-14T12:49:34;2.10;;;0.98;;
69789;SDS011;57064;52.046;4.800;2023-06-14T12:52:00;2.35;;;1.10;;
69789;SDS011;57064;52.046;4.800;2023-06-14T12:54:26;3.33;;;1.58;;
69789;SDS011;57064;52.046;4.800;2023-06-14T12:56:52;2.63;;;1.50;;
69789;SDS011;57064;52.046;4.800;2023-06-14T12:59:20;5.47;;;1.30;;
69789;SDS011;57064;52.046;4.800;2023-06-14T13:01:46;3.78;;;1.38;;
69789;SDS011;57064;52.046;4.800;2023-06-14T13:04:15;5.43;;;1.38;;
69789;SDS011;57064;52.046;4.800;2023-06-14T13:06:41;3.58;;;1.50;;
69789;SDS011;57064;52.046;4.800;2023-06-14T13:09:07;4.95;;;1.60;;
69789;SDS011;57064;52.046;4.800;2023-06-14T13:11:33;2.80;;;1.30;;
69789;SDS011;57064;52.046;4.800;2023-06-14T13:14:00;3.38;;;1.45;;
69789;SDS011;57064;52.046;4.800;2023-06-14T13:16:26;2.30;;;1.20;;
69789;SDS011;57064;52.046;4.800;2023-06-14T13:18:52;2.63;;;1.30;;
69789;SDS011;57064;52.046;4.800;2023-06-14T13:21:18;2.45;;;1.25;;
69789;SDS011;57064;52.046;4.800;2023-06-14T13:23:44;3.05;;;1.60;;
69789;SDS011;57064;52.046;4.800;2023-06-14T13:26:11;2.00;;;1.30;;
69789;SDS011;57064;52.046;4.800;2023-06-14T13:28:37;4.50;;;1.60;;
69789;SDS011;57064;52.046;4.800;2023-06-14T13:31:03;2.20;;;1.27;;
69789;SDS011;57064;52.046;4.800;2023-06-14T13:33:29;4.18;;;1.60;;
69789;SDS011;57064;52.046;4.800;2023-06-14T13:35:56;1.85;;;1.30;;
69789;SDS011;57064;52.046;4.800;2023-06-14T13:38:22;1.90;;;1.25;;
69789;SDS011;57064;52.046;4.800;2023-06-14T13:40:48;13.48;;;1.95;;
69789;SDS011;57064;52.046;4.800;2023-06-14T13:43:14;2.78;;;1.48;;
69789;SDS011;57064;52.046;4.800;2023-06-14T13:45:40;2.55;;;1.35;;
69789;SDS011;57064;52.046;4.800;2023-06-14T13:48:06;2.80;;;1.20;;
69789;SDS011;57064;52.046;4.800;2023-06-14T13:50:32;2.47;;;1.20;;
69789;SDS011;57064;52.046;4.800;2023-06-14T13:52:59;5.05;;;1.33;;
69789;SDS011;57064;52.046;4.800;2023-06-14T13:55:25;3.53;;;1.52;;
69789;SDS011;57064;52.046;4.800;2023-06-14T13:57:51;2.50;;;1.33;;
69789;SDS011;57064;52.046;4.800;2023-06-14T14:00:17;3.80;;;1.00;;
69789;SDS011;57064;52.046;4.800;2023-06-14T14:02:44;2.45;;;1.08;;
69789;SDS011;57064;52.046;4.800;2023-06-14T14:05:10;3.40;;;1.38;;
69789;SDS011;57064;52.046;4.800;2023-06-14T14:07:36;4.32;;;1.52;;
69789;SDS011;57064;52.046;4.800;2023-06-14T14:10:03;3.80;;;1.40;;
69789;SDS011;57064;52.046;4.800;2023-06-14T14:12:29;3.70;;;1.50;;
69789;SDS011;57064;52.046;4.800;2023-06-14T14:14:57;3.42;;;1.25;;
69789;SDS011;57064;52.046;4.800;2023-06-14T14:17:23;3.20;;;1.60;;
69789;SDS011;57064;52.046;4.800;2023-06-14T14:19:49;3.55;;;1.50;;
69789;SDS011;57064;52.046;4.800;2023-06-14T14:22:15;2.78;;;1.65;;
69789;SDS011;57064;52.046;4.800;2023-06-14T14:24:41;2.92;;;1.30;;
69789;SDS011;57064;52.046;4.800;2023-06-14T14:27:07;3.05;;;1.35;;
69789;SDS011;57064;52.046;4.800;2023-06-14T14:29:34;3.22;;;1.60;;
69789;SDS011;57064;52.046;4.800;2023-06-14T14:32:00;2.13;;;1.27;;
69789;SDS011;57064;52.046;4.800;2023-06-14T14:34:26;6.00;;;1.70;;
69789;SDS011;57064;52.046;4.800;2023-06-14T14:36:53;3.92;;;1.30;;
69789;SDS011;57064;52.046;4.800;2023-06-14T14:39:19;3.00;;;1.45;;
69789;SDS011;57064;52.046;4.800;2023-06-14T14:41:45;5.28;;;1.30;;
69789;SDS011;57064;52.046;4.800;2023-06-14T14:44:11;1.85;;;1.15;;
69789;SDS011;57064;52.046;4.800;2023-06-14T14:46:38;2.90;;;1.30;;
69789;SDS011;57064;52.046;4.800;2023-06-14T14:49:04;2.70;;;1.30;;
69789;SDS011;57064;52.046;4.800;2023-06-14T14:51:30;3.53;;;1.30;;
69789;SDS011;57064;52.046;4.800;2023-06-14T14:53:56;2.33;;;1.30;;
69789;SDS011;57064;52.046;4.800;2023-06-14T14:56:22;3.97;;;1.75;;
69789;SDS011;57064;52.046;4.800;2023-06-14T14:58:48;4.22;;;1.85;;
69789;SDS011;57064;52.046;4.800;2023-06-14T15:01:15;3.83;;;1.30;;
69789;SDS011;57064;52.046;4.800;2023-06-14T15:03:41;2.60;;;1.40;;
69789;SDS011;57064;52.046;4.800;2023-06-14T15:06:07;3.75;;;1.30;;
69789;SDS011;57064;52.046;4.800;2023-06-14T15:08:33;2.97;;;1.40;;
69789;SDS011;57064;52.046;4.800;2023-06-14T15:10:59;12.30;;;1.77;;
69789;SDS011;57064;52.046;4.800;2023-06-14T15:13:27;2.50;;;1.50;;
69789;SDS011;57064;52.046;4.800;2023-06-14T15:15:53;3.97;;;1.27;;
69789;SDS011;57064;52.046;4.800;2023-06-14T15:18:20;4.72;;;1.50;;